createdAt,value
2022-10-11T00:01:51.507Z,9.09
2022-10-11T00:04:56.517Z,9.07
2022-10-11T00:08:00.124Z,9.20
2022-10-11T00:11:04.789Z,9.22
2022-10-11T00:14:07.850Z,9.38
2022-10-11T00:17:13.077Z,9.42
2022-10-11T00:20:16.769Z,9.40
2022-10-11T00:23:19.988Z,9.51
2022-10-11T00:26:23.690Z,9.45
2022-10-11T00:29:26.936Z,9.50
2022-10-11T00:32:32.087Z,9.46
2022-10-11T00:35:35.641Z,9.53
2022-10-11T00:38:41.288Z,9.62
2022-10-11T00:41:45.336Z,9.62
2022-10-11T00:44:50.472Z,9.60
2022-10-11T00:47:55.953Z,9.59
2022-10-11T00:51:03.447Z,9.58
2022-10-11T00:54:13.414Z,9.75
2022-10-11T00:57:21.634Z,9.82
2022-10-11T01:00:26.797Z,9.80
2022-10-11T01:03:41.225Z,9.70
2022-10-11T01:06:48.465Z,9.60
2022-10-11T01:09:57.326Z,9.56
2022-10-11T01:13:13.298Z,9.62
2022-10-11T01:16:25.413Z,9.60
2022-10-11T01:19:50.949Z,9.70
2022-10-11T01:23:41.181Z,9.75
2022-10-11T01:27:37.855Z,9.79
2022-10-11T01:30:46.848Z,9.78
2022-10-11T01:34:03.027Z,9.83
2022-10-11T01:37:19.771Z,9.94
2022-10-11T01:40:26.217Z,10.10
2022-10-11T01:43:33.744Z,10.34
2022-10-11T01:46:42.404Z,10.55
2022-10-11T01:49:53.963Z,10.72
2022-10-11T01:53:03.752Z,10.84
2022-10-11T01:56:21.648Z,10.81
2022-10-11T01:59:42.969Z,10.83
2022-10-11T02:03:12.313Z,10.80
2022-10-11T02:06:24.340Z,10.79
2022-10-11T02:09:39.373Z,10.79
2022-10-11T02:12:54.737Z,10.81
2022-10-11T02:16:03.540Z,10.79
2022-10-11T02:19:21.177Z,10.78
2022-10-11T02:22:38.035Z,10.77
2022-10-11T02:25:53.473Z,10.77
2022-10-11T02:29:03.588Z,10.75
2022-10-11T02:32:35.493Z,10.75
2022-10-11T02:36:02.426Z,10.71
2022-10-11T02:39:26.015Z,10.69
2022-10-11T02:42:39.786Z,10.69
2022-10-11T02:45:55.939Z,10.68
2022-10-11T02:49:01.423Z,10.65
2022-10-11T02:52:13.285Z,10.64
2022-10-11T02:55:20.540Z,10.63
2022-10-11T02:58:36.426Z,10.61
2022-10-11T03:01:41.153Z,10.60
2022-10-11T03:04:46.487Z,10.59
2022-10-11T03:08:00.125Z,10.56
2022-10-11T03:11:04.845Z,10.56
2022-10-11T03:14:08.673Z,10.57
2022-10-11T03:17:37.348Z,10.56
2022-10-11T03:21:16.707Z,10.55
2022-10-11T03:24:37.945Z,10.53
2022-10-11T03:27:44.182Z,10.52
2022-10-11T03:30:49.904Z,10.51
2022-10-11T03:33:53.999Z,10.50
2022-10-11T03:36:57.717Z,10.48
2022-10-11T03:40:09.618Z,10.44
2022-10-11T03:43:17.758Z,10.41
2022-10-11T03:46:24.183Z,10.43
2022-10-11T03:49:32.399Z,10.41
2022-10-11T03:52:43.169Z,10.40
2022-10-11T03:56:18.385Z,10.33
2022-10-11T03:59:42.068Z,10.32
2022-10-11T04:02:50.870Z,10.31
2022-10-11T04:05:58.039Z,10.28
2022-10-11T04:09:01.751Z,10.30
2022-10-11T04:12:55.488Z,10.27
2022-10-11T04:16:17.963Z,10.25
2022-10-11T04:19:24.563Z,10.30
2022-10-11T04:22:28.213Z,10.29
2022-10-11T04:25:32.977Z,10.26
2022-10-11T04:28:44.394Z,10.21
2022-10-11T04:32:07.815Z,10.19
2022-10-11T04:35:19.457Z,10.13
2022-10-11T04:38:30.392Z,10.10
2022-10-11T04:41:36.046Z,10.09
2022-10-11T04:44:44.180Z,10.06
2022-10-11T04:47:48.901Z,10.07
2022-10-11T04:50:53.085Z,10.08
2022-10-11T04:53:56.672Z,9.97
2022-10-11T04:57:00.100Z,9.93
2022-10-11T05:00:06.137Z,9.93
2022-10-11T05:03:09.207Z,9.86
2022-10-11T05:06:13.419Z,9.85
2022-10-11T05:09:24.781Z,9.79
2022-10-11T05:12:28.264Z,9.74
2022-10-11T05:15:33.160Z,9.67
2022-10-11T05:18:38.821Z,9.66
2022-10-11T05:21:43.458Z,9.68
2022-10-11T05:24:47.564Z,9.71
2022-10-11T05:27:52.295Z,9.74
2022-10-11T05:30:58.482Z,9.68
2022-10-11T05:34:01.698Z,9.63
2022-10-11T05:37:04.772Z,9.59
2022-10-11T05:40:09.574Z,9.62
2022-10-11T05:43:18.393Z,9.60
2022-10-11T05:46:23.401Z,9.60
2022-10-11T05:49:26.406Z,9.62
2022-10-11T05:52:29.435Z,9.58
2022-10-11T05:55:37.100Z,9.57
2022-10-11T05:58:40.918Z,9.54
2022-10-11T06:01:45.352Z,9.52
2022-10-11T06:04:48.354Z,9.55
2022-10-11T06:07:58.081Z,9.51
2022-10-11T06:11:13.463Z,9.50
2022-10-11T06:14:19.178Z,9.48
2022-10-11T06:17:28.691Z,9.44
2022-10-11T06:20:34.446Z,9.41
2022-10-11T06:23:39.509Z,9.34
2022-10-11T06:26:44.713Z,9.28
2022-10-11T06:29:47.949Z,9.26
2022-10-11T06:32:53.368Z,9.16
2022-10-11T06:35:59.893Z,9.16
2022-10-11T06:39:03.175Z,9.11
2022-10-11T06:42:07.098Z,9.09
2022-10-11T06:45:11.874Z,9.13
2022-10-11T06:48:40.885Z,9.21
2022-10-11T06:51:59.571Z,9.27
2022-10-11T06:55:05.871Z,9.29
2022-10-11T07:02:13.713Z,9.45
2022-10-11T07:05:21.381Z,9.43
2022-10-11T07:08:25.953Z,9.46
2022-10-11T07:11:31.350Z,9.46
2022-10-11T07:14:35.120Z,9.51
2022-10-11T07:17:40.274Z,9.53
2022-10-11T07:21:00.499Z,9.60
2022-10-11T07:24:41.813Z,9.57
2022-10-11T07:27:45.623Z,9.50
2022-10-11T07:30:49.453Z,9.53
2022-10-11T07:33:52.883Z,9.50
2022-10-11T07:36:59.659Z,9.49
2022-10-11T07:40:03.082Z,9.51
2022-10-11T07:43:06.285Z,9.55
2022-10-11T07:46:12.151Z,9.58
2022-10-11T07:49:16.507Z,9.64
2022-10-11T07:52:23.853Z,9.72
2022-10-11T07:55:30.450Z,9.85
2022-10-11T07:58:34.148Z,9.92
2022-10-11T08:01:37.873Z,10.04
2022-10-11T08:04:41.209Z,10.10
2022-10-11T08:07:49.230Z,10.20
2022-10-11T08:10:53.159Z,10.28
2022-10-11T08:13:56.850Z,10.30
2022-10-11T08:17:00.205Z,10.35
2022-10-11T08:20:10.062Z,10.41
2022-10-11T08:23:17.640Z,10.49
2022-10-11T08:26:21.625Z,10.55
2022-10-11T08:29:29.577Z,10.70
2022-10-11T08:32:33.079Z,10.71
2022-10-11T08:35:37.785Z,10.85
2022-10-11T08:38:44.759Z,10.94
2022-10-11T08:41:55.617Z,11.00
2022-10-11T08:45:11.101Z,10.99
2022-10-11T08:48:20.139Z,11.08
2022-10-11T08:51:30.793Z,10.97
2022-10-11T08:54:45.270Z,10.87
2022-10-11T08:57:57.035Z,10.72
2022-10-11T09:01:07.289Z,10.74
2022-10-11T09:04:17.852Z,10.68
2022-10-11T09:07:49.461Z,10.71
2022-10-11T09:16:24.193Z,10.69
2022-10-11T09:19:48.993Z,10.75
2022-10-11T09:22:59.843Z,10.93
2022-10-11T09:26:07.859Z,10.92
2022-10-11T09:29:22.402Z,10.98
2022-10-11T09:32:29.763Z,10.86
2022-10-11T09:35:40.975Z,10.78
2022-10-11T09:38:49.910Z,10.82
2022-10-11T09:42:00.046Z,10.86
2022-10-11T09:45:16.009Z,11.13
2022-10-11T09:48:21.967Z,11.23
2022-10-11T09:51:28.588Z,11.20
2022-10-11T09:54:41.757Z,11.47
2022-10-11T09:57:55.878Z,11.70
2022-10-11T10:01:07.653Z,11.80
2022-10-11T10:04:13.202Z,11.99
2022-10-11T10:07:16.839Z,11.96
2022-10-11T10:10:39.842Z,11.83
2022-10-11T10:13:46.038Z,11.71
2022-10-11T10:17:01.554Z,11.72
2022-10-11T10:20:05.732Z,11.74
2022-10-11T10:23:12.008Z,11.75
2022-10-11T10:26:17.412Z,11.88
2022-10-11T10:29:21.173Z,12.03
2022-10-11T10:32:31.956Z,12.07
2022-10-11T10:35:39.529Z,11.88
2022-10-11T10:38:52.312Z,11.82
2022-10-11T10:41:56.301Z,11.90
2022-10-11T10:45:00.077Z,11.83
2022-10-11T10:48:19.479Z,11.90
2022-10-11T10:51:33.285Z,11.81
2022-10-11T10:54:47.124Z,11.80
2022-10-11T10:58:05.532Z,11.81
2022-10-11T11:01:14.603Z,11.77
2022-10-11T11:04:28.241Z,11.69
2022-10-11T11:07:37.255Z,11.82
2022-10-11T11:10:49.783Z,11.88
2022-10-11T11:13:58.094Z,11.96
2022-10-11T11:17:09.915Z,12.00
2022-10-11T11:20:32.821Z,11.96
2022-10-11T11:23:45.457Z,12.25
2022-10-11T11:26:55.088Z,12.40
2022-10-11T11:30:04.539Z,12.51
2022-10-11T11:33:17.828Z,12.49
2022-10-11T11:36:37.932Z,12.58
2022-10-11T11:39:44.710Z,12.63
2022-10-11T11:42:51.924Z,12.53
2022-10-11T11:45:58.954Z,12.79
2022-10-11T11:49:09.672Z,12.84
2022-10-11T11:52:26.295Z,12.97
2022-10-11T11:55:33.833Z,12.74
2022-10-11T11:58:45.313Z,12.70
2022-10-11T12:01:54.893Z,12.65
2022-10-11T12:04:58.417Z,12.59
2022-10-11T12:08:06.056Z,12.51
2022-10-11T12:11:21.476Z,12.69
2022-10-11T12:14:37.421Z,12.59
2022-10-11T12:18:17.273Z,12.76
2022-10-11T12:21:29.850Z,12.70
2022-10-11T12:24:54.446Z,12.77
2022-10-11T12:27:58.514Z,12.68
2022-10-11T12:31:17.771Z,12.74
2022-10-11T12:34:34.997Z,12.62
2022-10-11T12:38:06.536Z,12.77
2022-10-11T12:41:50.321Z,12.86
2022-10-11T12:45:31.219Z,12.79
2022-10-11T12:48:51.668Z,12.79
2022-10-11T12:52:00.906Z,12.59
2022-10-11T12:55:14.427Z,12.53
2022-10-11T12:58:38.808Z,12.61
2022-10-11T13:01:51.235Z,12.54
2022-10-11T13:04:54.457Z,12.52
2022-10-11T13:08:00.208Z,12.64
2022-10-11T13:11:06.493Z,12.69
2022-10-11T13:14:16.024Z,12.74
2022-10-11T13:17:25.798Z,12.82
2022-10-11T13:20:33.359Z,12.75
2022-10-11T13:23:39.772Z,13.03
2022-10-11T13:26:44.890Z,12.86
2022-10-11T13:29:51.601Z,13.01
2022-10-11T13:32:54.989Z,12.96
2022-10-11T13:35:57.898Z,13.12
2022-10-11T13:39:02.191Z,13.23
2022-10-11T13:42:09.783Z,13.19
2022-10-11T13:45:16.632Z,13.16
2022-10-11T13:48:19.505Z,13.10
2022-10-11T13:51:29.862Z,13.13
2022-10-11T13:55:07.801Z,13.15
2022-10-11T13:58:18.800Z,13.08
2022-10-11T14:01:26.886Z,13.10
2022-10-11T14:04:40.832Z,13.02
2022-10-11T14:07:43.656Z,13.06
2022-10-11T14:10:47.488Z,13.14
2022-10-11T14:13:50.769Z,13.11
2022-10-11T14:16:58.648Z,13.11
2022-10-11T14:20:15.494Z,13.16
2022-10-11T14:23:18.360Z,13.06
2022-10-11T14:26:22.322Z,12.90
2022-10-11T14:29:28.374Z,12.91
2022-10-11T14:32:35.182Z,12.99
2022-10-11T14:35:38.208Z,12.93
2022-10-11T14:38:41.131Z,12.85
2022-10-11T14:41:44.127Z,12.73
2022-10-11T14:44:46.957Z,12.73
2022-10-11T14:47:51.964Z,12.70
2022-10-11T14:50:59.131Z,12.58
2022-10-11T14:54:01.997Z,12.53
2022-10-11T14:57:05.712Z,12.37
2022-10-11T15:00:17.264Z,12.34
2022-10-11T15:03:21.468Z,12.32
2022-10-11T15:06:28.378Z,12.34
2022-10-11T15:09:31.730Z,12.33
2022-10-11T15:12:34.541Z,12.31
2022-10-11T15:15:40.955Z,12.22
2022-10-11T15:18:50.995Z,12.24
2022-10-11T15:21:54.305Z,12.30
2022-10-11T15:24:57.176Z,12.19
2022-10-11T15:28:00.197Z,12.10
2022-10-11T15:31:03.274Z,12.03
2022-10-11T15:34:07.510Z,11.95
2022-10-11T15:37:10.376Z,11.85
2022-10-11T15:40:21.998Z,11.77
2022-10-11T15:43:25.346Z,11.68
2022-10-11T15:46:28.239Z,11.62
2022-10-11T15:49:32.491Z,11.60
2022-10-11T15:52:35.330Z,11.47
2022-10-11T15:55:40.198Z,11.48
2022-10-11T15:58:43.449Z,11.40
2022-10-11T16:01:47.017Z,11.31
2022-10-11T16:04:51.266Z,11.19
2022-10-11T16:07:55.311Z,11.09
2022-10-11T16:10:58.264Z,11.01
2022-10-11T16:14:01.104Z,10.81
2022-10-11T16:17:05.717Z,10.77
2022-10-11T16:20:10.631Z,10.72
2022-10-11T16:23:15.319Z,10.73
2022-10-11T16:26:18.563Z,10.63
2022-10-11T16:29:22.057Z,10.65
2022-10-11T16:32:25.500Z,10.45
2022-10-11T16:35:32.487Z,10.30
2022-10-11T16:38:35.533Z,10.19
2022-10-11T16:41:38.817Z,10.23
2022-10-11T16:44:41.814Z,10.06
2022-10-11T16:47:45.239Z,9.89
2022-10-11T16:50:49.411Z,9.91
2022-10-11T16:53:52.614Z,9.72
2022-10-11T16:56:55.571Z,9.80
2022-10-11T16:59:58.550Z,9.66
2022-10-11T17:03:01.543Z,9.67
2022-10-11T17:06:07.065Z,9.90
2022-10-11T17:09:11.374Z,9.91
2022-10-11T17:12:16.123Z,9.92
2022-10-11T17:15:19.103Z,9.90
2022-10-11T17:18:21.986Z,9.97
2022-10-11T17:21:26.445Z,9.95
2022-10-11T17:24:29.531Z,9.61
2022-10-11T17:27:33.025Z,9.73
2022-10-11T17:30:35.887Z,9.78
2022-10-11T17:33:38.913Z,9.50
2022-10-11T17:36:43.868Z,9.74
2022-10-11T17:39:46.712Z,9.38
2022-10-11T17:42:49.648Z,9.27
2022-10-11T17:45:56.109Z,9.09
2022-10-11T17:48:59.890Z,9.01
2022-10-11T17:52:04.316Z,9.09
2022-10-11T17:55:07.479Z,9.27
2022-10-11T17:58:10.522Z,9.22
2022-10-11T18:01:16.000Z,8.96
2022-10-11T18:04:21.732Z,8.78
2022-10-11T18:07:26.004Z,8.73
2022-10-11T18:10:28.895Z,8.67
2022-10-11T18:13:31.810Z,8.40
2022-10-11T18:16:36.742Z,8.41
2022-10-11T18:19:39.615Z,8.51
2022-10-11T18:22:43.835Z,8.35
2022-10-11T18:25:49.144Z,8.31
2022-10-11T18:28:53.787Z,8.25
2022-10-11T18:31:56.847Z,8.23
2022-10-11T18:34:59.849Z,8.19
2022-10-11T18:38:04.717Z,8.23
2022-10-11T18:41:09.523Z,8.37
2022-10-11T18:44:15.611Z,8.15
2022-10-11T18:47:18.548Z,7.85
2022-10-11T18:50:21.669Z,7.65
2022-10-11T18:53:25.946Z,7.81
2022-10-11T18:56:31.199Z,7.83
2022-10-11T18:59:34.297Z,7.99
2022-10-11T19:02:37.186Z,8.11
2022-10-11T19:05:40.100Z,8.09
2022-10-11T19:08:44.636Z,7.88
2022-10-11T19:11:47.489Z,7.77
2022-10-11T19:14:50.356Z,7.57
2022-10-11T19:17:53.229Z,7.34
2022-10-11T19:20:56.074Z,7.29
2022-10-11T19:24:00.338Z,7.29
2022-10-11T19:27:03.288Z,7.28
2022-10-11T19:30:07.343Z,7.12
2022-10-11T19:33:11.552Z,7.10
2022-10-11T19:36:15.091Z,7.10
2022-10-11T19:39:19.986Z,7.14
2022-10-11T19:42:22.817Z,7.17
2022-10-11T19:45:25.663Z,7.09
2022-10-11T19:48:29.006Z,6.99
2022-10-11T19:51:34.902Z,7.02
2022-10-11T19:54:39.123Z,7.12
2022-10-11T19:57:42.016Z,6.89
2022-10-11T20:00:44.957Z,6.81
2022-10-11T20:03:50.648Z,6.93
2022-10-11T20:06:53.557Z,6.84
2022-10-11T20:09:57.794Z,6.79
2022-10-11T20:13:00.688Z,6.78
2022-10-11T20:16:06.521Z,6.94
2022-10-11T20:19:09.368Z,7.07
2022-10-11T20:22:12.228Z,7.05
2022-10-11T20:25:16.597Z,7.03
2022-10-11T20:28:19.500Z,7.09
2022-10-11T20:31:25.462Z,7.11
2022-10-11T20:34:28.807Z,7.06
2022-10-11T20:37:31.999Z,7.13
2022-10-11T20:40:40.414Z,7.14
2022-10-11T20:43:44.068Z,6.99
2022-10-11T20:46:47.182Z,6.85
2022-10-11T20:49:50.071Z,6.71
2022-10-11T20:52:53.037Z,6.74
2022-10-11T20:55:57.594Z,6.73
2022-10-11T20:59:00.781Z,6.59
2022-10-11T21:02:03.629Z,6.65
2022-10-11T21:05:07.697Z,6.51
2022-10-11T21:08:10.725Z,6.45
2022-10-11T21:11:15.161Z,6.15
2022-10-11T21:14:18.039Z,6.25
2022-10-11T21:17:20.995Z,6.35
2022-10-11T21:20:24.260Z,6.36
2022-10-11T21:23:27.140Z,6.39
2022-10-11T21:26:32.091Z,6.57
2022-10-11T21:29:34.967Z,6.59
2022-10-11T21:32:38.099Z,6.66
2022-10-11T21:35:41.381Z,6.71
2022-10-11T21:38:44.507Z,6.76
2022-10-11T21:41:48.729Z,6.75
2022-10-11T21:44:51.593Z,6.79
2022-10-11T21:47:54.616Z,6.80
2022-10-11T21:50:57.521Z,6.77
2022-10-11T21:54:01.182Z,6.81
2022-10-11T21:57:05.433Z,6.63
2022-10-11T22:00:09.412Z,6.62
2022-10-11T22:03:16.173Z,6.49
2022-10-11T22:06:19.100Z,6.38
2022-10-11T22:09:22.361Z,6.46
2022-10-11T22:12:26.835Z,6.41
2022-10-11T22:15:29.695Z,6.37
2022-10-11T22:18:33.818Z,6.38
2022-10-11T22:21:40.132Z,6.18
2022-10-11T22:24:45.486Z,6.26
2022-10-11T22:27:49.717Z,6.35
2022-10-11T22:30:52.629Z,6.33
2022-10-11T22:33:56.273Z,6.30
2022-10-11T22:36:59.291Z,6.33
2022-10-11T22:40:02.176Z,6.23
2022-10-11T22:43:06.486Z,6.35
2022-10-11T22:46:09.925Z,6.26
2022-10-11T22:49:12.878Z,6.34
2022-10-11T22:52:15.945Z,6.33
2022-10-11T22:55:20.241Z,6.34
2022-10-11T22:58:24.831Z,6.33
2022-10-11T23:01:27.831Z,6.35
2022-10-11T23:04:30.740Z,6.46
2022-10-11T23:07:33.779Z,6.48
2022-10-11T23:10:39.250Z,6.39
2022-10-11T23:13:43.645Z,6.32
2022-10-11T23:16:46.540Z,6.24
2022-10-11T23:19:49.511Z,6.19
2022-10-11T23:22:52.379Z,6.09
2022-10-11T23:26:02.272Z,6.19
2022-10-11T23:29:06.505Z,5.97
2022-10-11T23:32:10.081Z,6.04
2022-10-11T23:35:13.004Z,6.02
2022-10-11T23:38:15.938Z,6.05
2022-10-11T23:41:18.941Z,5.99
2022-10-11T23:44:23.189Z,5.94
2022-10-11T23:47:26.153Z,5.84
2022-10-11T23:50:29.073Z,5.84
2022-10-11T23:53:31.980Z,5.77
2022-10-11T23:56:34.943Z,5.85
2022-10-11T23:59:39.163Z,5.76
